sensor_id;sensor_type;location;lat;lon;timestamp;P1;durP1;ratioP1;P2;durP2;ratioP2
21959;SDS011;11144;43.030;25.108;2022-10-31T00:00:36;14.20;;;5.68;;
21959;SDS011;11144;43.030;25.108;2022-10-31T00:02:09;11.60;;;4.78;;
21959;SDS011;11144;43.030;25.108;2022-10-31T00:03:43;10.32;;;3.83;;
21959;SDS011;11144;43.030;25.108;2022-10-31T00:05:15;6.88;;;3.10;;
21959;SDS011;11144;43.030;25.108;2022-10-31T00:06:49;7.82;;;3.47;;
21959;SDS011;11144;43.030;25.108;2022-10-31T00:08:23;8.20;;;3.40;;
21959;SDS011;11144;43.030;25.108;2022-10-31T00:09:57;7.45;;;3.05;;
21959;SDS011;11144;43.030;25.108;2022-10-31T00:11:29;16.25;;;2.70;;
21959;SDS011;11144;43.030;25.108;2022-10-31T00:13:02;6.15;;;2.85;;
21959;SDS011;11144;43.030;25.108;2022-10-31T00:14:35;5.05;;;2.78;;
21959;SDS011;11144;43.030;25.108;2022-10-31T00:16:15;6.70;;;3.40;;
21959;SDS011;11144;43.030;25.108;2022-10-31T00:17:49;9.25;;;3.70;;
21959;SDS011;11144;43.030;25.108;2022-10-31T00:19:22;8.73;;;3.13;;
21959;SDS011;11144;43.030;25.108;2022-10-31T00:20:59;11.80;;;4.07;;
21959;SDS011;11144;43.030;25.108;2022-10-31T00:22:31;7.78;;;2.50;;
21959;SDS011;11144;43.030;25.108;2022-10-31T00:24:06;12.13;;;3.30;;
21959;SDS011;11144;43.030;25.108;2022-10-31T00:25:40;9.90;;;2.70;;
21959;SDS011;11144;43.030;25.108;2022-10-31T00:27:14;6.45;;;3.35;;
21959;SDS011;11144;43.030;25.108;2022-10-31T00:28:47;6.88;;;2.88;;
21959;SDS011;11144;43.030;25.108;2022-10-31T00:30:20;8.15;;;2.92;;
21959;SDS011;11144;43.030;25.108;2022-10-31T00:31:54;5.63;;;2.75;;
21959;SDS011;11144;43.030;25.108;2022-10-31T00:33:27;6.07;;;2.80;;
21959;SDS011;11144;43.030;25.108;2022-10-31T00:35:00;6.07;;;2.90;;
21959;SDS011;11144;43.030;25.108;2022-10-31T00:36:33;5.38;;;2.83;;
21959;SDS011;11144;43.030;25.108;2022-10-31T00:38:06;5.55;;;2.88;;
21959;SDS011;11144;43.030;25.108;2022-10-31T00:39:40;7.53;;;3.22;;
21959;SDS011;11144;43.030;25.108;2022-10-31T00:41:15;6.45;;;3.00;;
21959;SDS011;11144;43.030;25.108;2022-10-31T00:42:49;11.38;;;3.22;;
21959;SDS011;11144;43.030;25.108;2022-10-31T00:44:21;9.27;;;3.55;;
21959;SDS011;11144;43.030;25.108;2022-10-31T00:45:56;6.57;;;2.85;;
21959;SDS011;11144;43.030;25.108;2022-10-31T00:47:29;8.98;;;3.60;;
21959;SDS011;11144;43.030;25.108;2022-10-31T00:49:03;13.43;;;5.03;;
21959;SDS011;11144;43.030;25.108;2022-10-31T00:50:36;11.07;;;5.07;;
21959;SDS011;11144;43.030;25.108;2022-10-31T00:52:08;15.63;;;5.53;;
21959;SDS011;11144;43.030;25.108;2022-10-31T00:53:41;12.88;;;4.78;;
21959;SDS011;11144;43.030;25.108;2022-10-31T00:55:16;7.38;;;3.08;;
21959;SDS011;11144;43.030;25.108;2022-10-31T00:56:50;8.07;;;2.88;;
21959;SDS011;11144;43.030;25.108;2022-10-31T00:58:23;6.15;;;2.85;;
21959;SDS011;11144;43.030;25.108;2022-10-31T00:59:56;8.88;;;2.80;;
21959;SDS011;11144;43.030;25.108;2022-10-31T01:01:29;7.38;;;3.20;;
21959;SDS011;11144;43.030;25.108;2022-10-31T01:03:03;8.85;;;3.53;;
21959;SDS011;11144;43.030;25.108;2022-10-31T01:04:36;11.05;;;3.88;;
21959;SDS011;11144;43.030;25.108;2022-10-31T01:06:09;9.73;;;3.80;;
21959;SDS011;11144;43.030;25.108;2022-10-31T01:07:43;9.98;;;4.43;;
21959;SDS011;11144;43.030;25.108;2022-10-31T01:09:16;7.22;;;3.88;;
21959;SDS011;11144;43.030;25.108;2022-10-31T01:10:59;8.50;;;4.43;;
21959;SDS011;11144;43.030;25.108;2022-10-31T01:12:35;9.25;;;4.13;;
21959;SDS011;11144;43.030;25.108;2022-10-31T01:14:09;14.48;;;5.53;;
21959;SDS011;11144;43.030;25.108;2022-10-31T01:15:42;12.38;;;4.63;;
21959;SDS011;11144;43.030;25.108;2022-10-31T01:17:16;9.95;;;4.30;;
21959;SDS011;11144;43.030;25.108;2022-10-31T01:18:51;12.73;;;4.80;;
21959;SDS011;11144;43.030;25.108;2022-10-31T01:20:25;8.88;;;3.88;;
21959;SDS011;11144;43.030;25.108;2022-10-31T01:21:58;7.95;;;3.60;;
21959;SDS011;11144;43.030;25.108;2022-10-31T01:23:33;9.30;;;4.00;;
21959;SDS011;11144;43.030;25.108;2022-10-31T01:25:07;6.60;;;4.00;;
21959;SDS011;11144;43.030;25.108;2022-10-31T01:26:43;6.20;;;3.42;;
21959;SDS011;11144;43.030;25.108;2022-10-31T01:28:16;10.52;;;3.70;;
21959;SDS011;11144;43.030;25.108;2022-10-31T01:29:49;9.77;;;3.85;;
21959;SDS011;11144;43.030;25.108;2022-10-31T01:31:22;11.30;;;5.20;;
21959;SDS011;11144;43.030;25.108;2022-10-31T01:32:58;10.50;;;5.30;;
21959;SDS011;11144;43.030;25.108;2022-10-31T01:34:31;11.45;;;6.47;;
21959;SDS011;11144;43.030;25.108;2022-10-31T01:36:13;11.82;;;5.20;;
21959;SDS011;11144;43.030;25.108;2022-10-31T01:37:48;10.55;;;4.47;;
21959;SDS011;11144;43.030;25.108;2022-10-31T01:39:21;10.18;;;4.75;;
21959;SDS011;11144;43.030;25.108;2022-10-31T01:40:55;10.02;;;4.75;;
21959;SDS011;11144;43.030;25.108;2022-10-31T01:42:28;12.63;;;4.80;;
21959;SDS011;11144;43.030;25.108;2022-10-31T01:44:03;11.48;;;5.10;;
21959;SDS011;11144;43.030;25.108;2022-10-31T01:45:58;8.88;;;4.10;;
21959;SDS011;11144;43.030;25.108;2022-10-31T01:47:33;12.80;;;4.57;;
21959;SDS011;11144;43.030;25.108;2022-10-31T01:49:12;8.68;;;4.22;;
21959;SDS011;11144;43.030;25.108;2022-10-31T01:50:49;13.32;;;5.05;;
21959;SDS011;11144;43.030;25.108;2022-10-31T01:52:26;10.88;;;6.05;;
21959;SDS011;11144;43.030;25.108;2022-10-31T01:54:04;11.65;;;5.72;;
21959;SDS011;11144;43.030;25.108;2022-10-31T01:55:41;10.25;;;5.20;;
21959;SDS011;11144;43.030;25.108;2022-10-31T01:57:19;8.40;;;5.18;;
21959;SDS011;11144;43.030;25.108;2022-10-31T01:58:57;9.25;;;5.40;;
21959;SDS011;11144;43.030;25.108;2022-10-31T02:00:33;10.10;;;6.07;;
21959;SDS011;11144;43.030;25.108;2022-10-31T02:02:05;9.98;;;5.63;;
21959;SDS011;11144;43.030;25.108;2022-10-31T02:03:40;10.50;;;6.07;;
21959;SDS011;11144;43.030;25.108;2022-10-31T02:05:14;10.15;;;6.05;;
21959;SDS011;11144;43.030;25.108;2022-10-31T02:06:49;13.38;;;4.82;;
21959;SDS011;11144;43.030;25.108;2022-10-31T02:08:28;10.68;;;5.05;;
21959;SDS011;11144;43.030;25.108;2022-10-31T02:10:02;10.10;;;5.75;;
21959;SDS011;11144;43.030;25.108;2022-10-31T02:11:36;12.40;;;5.90;;
21959;SDS011;11144;43.030;25.108;2022-10-31T02:13:09;10.30;;;5.15;;
21959;SDS011;11144;43.030;25.108;2022-10-31T02:14:51;12.55;;;4.97;;
21959;SDS011;11144;43.030;25.108;2022-10-31T02:16:24;11.18;;;5.20;;
21959;SDS011;11144;43.030;25.108;2022-10-31T02:17:57;60.42;;;24.27;;
21959;SDS011;11144;43.030;25.108;2022-10-31T02:19:34;19.95;;;8.60;;
21959;SDS011;11144;43.030;25.108;2022-10-31T02:21:15;13.20;;;6.78;;
21959;SDS011;11144;43.030;25.108;2022-10-31T02:23:14;21.35;;;9.40;;
21959;SDS011;11144;43.030;25.108;2022-10-31T02:27:16;13.57;;;5.57;;
21959;SDS011;11144;43.030;25.108;2022-10-31T02:29:32;10.85;;;4.30;;
21959;SDS011;11144;43.030;25.108;2022-10-31T02:31:30;8.07;;;4.32;;
21959;SDS011;11144;43.030;25.108;2022-10-31T02:33:13;7.70;;;4.05;;
21959;SDS011;11144;43.030;25.108;2022-10-31T02:34:54;20.05;;;8.27;;
21959;SDS011;11144;43.030;25.108;2022-10-31T02:36:38;20.75;;;8.00;;
21959;SDS011;11144;43.030;25.108;2022-10-31T02:40:14;16.80;;;7.00;;
21959;SDS011;11144;43.030;25.108;2022-10-31T02:42:18;9.82;;;5.20;;
21959;SDS011;11144;43.030;25.108;2022-10-31T02:44:01;10.88;;;4.93;;
21959;SDS011;11144;43.030;25.108;2022-10-31T02:45:43;9.85;;;5.13;;
21959;SDS011;11144;43.030;25.108;2022-10-31T02:47:23;15.68;;;6.18;;
21959;SDS011;11144;43.030;25.108;2022-10-31T02:49:02;10.95;;;4.55;;
21959;SDS011;11144;43.030;25.108;2022-10-31T02:50:43;10.57;;;5.22;;
21959;SDS011;11144;43.030;25.108;2022-10-31T02:52:24;10.35;;;4.95;;
21959;SDS011;11144;43.030;25.108;2022-10-31T02:54:04;13.55;;;6.75;;
21959;SDS011;11144;43.030;25.108;2022-10-31T02:55:44;8.30;;;4.68;;
21959;SDS011;11144;43.030;25.108;2022-10-31T02:57:27;11.57;;;4.47;;
21959;SDS011;11144;43.030;25.108;2022-10-31T02:59:04;9.25;;;4.22;;
21959;SDS011;11144;43.030;25.108;2022-10-31T03:00:40;8.68;;;4.30;;
21959;SDS011;11144;43.030;25.108;2022-10-31T03:02:34;6.18;;;3.92;;
21959;SDS011;11144;43.030;25.108;2022-10-31T03:04:33;9.98;;;4.63;;
21959;SDS011;11144;43.030;25.108;2022-10-31T03:06:24;7.70;;;3.70;;
21959;SDS011;11144;43.030;25.108;2022-10-31T03:08:05;10.15;;;4.68;;
21959;SDS011;11144;43.030;25.108;2022-10-31T03:09:45;10.98;;;5.40;;
21959;SDS011;11144;43.030;25.108;2022-10-31T03:11:28;15.98;;;7.47;;
21959;SDS011;11144;43.030;25.108;2022-10-31T03:13:10;21.33;;;9.02;;
21959;SDS011;11144;43.030;25.108;2022-10-31T03:14:52;15.05;;;6.57;;
21959;SDS011;11144;43.030;25.108;2022-10-31T03:16:32;7.60;;;4.88;;
21959;SDS011;11144;43.030;25.108;2022-10-31T03:18:15;6.90;;;4.45;;
21959;SDS011;11144;43.030;25.108;2022-10-31T03:19:55;9.07;;;4.53;;
21959;SDS011;11144;43.030;25.108;2022-10-31T03:21:32;9.35;;;4.57;;
21959;SDS011;11144;43.030;25.108;2022-10-31T03:23:13;13.75;;;5.93;;
21959;SDS011;11144;43.030;25.108;2022-10-31T03:24:53;10.63;;;4.25;;
21959;SDS011;11144;43.030;25.108;2022-10-31T03:26:29;10.13;;;4.38;;
21959;SDS011;11144;43.030;25.108;2022-10-31T03:28:03;21.92;;;12.32;;
21959;SDS011;11144;43.030;25.108;2022-10-31T03:29:38;11.52;;;6.82;;
21959;SDS011;11144;43.030;25.108;2022-10-31T03:31:16;9.93;;;5.32;;
21959;SDS011;11144;43.030;25.108;2022-10-31T03:32:53;10.88;;;5.63;;
21959;SDS011;11144;43.030;25.108;2022-10-31T03:34:31;13.55;;;5.65;;
21959;SDS011;11144;43.030;25.108;2022-10-31T03:36:06;13.13;;;4.68;;
21959;SDS011;11144;43.030;25.108;2022-10-31T03:37:41;9.63;;;5.03;;
21959;SDS011;11144;43.030;25.108;2022-10-31T03:39:18;7.80;;;4.90;;
21959;SDS011;11144;43.030;25.108;2022-10-31T03:40:54;10.68;;;5.13;;
21959;SDS011;11144;43.030;25.108;2022-10-31T03:42:32;8.65;;;5.32;;
21959;SDS011;11144;43.030;25.108;2022-10-31T03:44:10;9.10;;;5.20;;
21959;SDS011;11144;43.030;25.108;2022-10-31T03:45:50;13.52;;;4.70;;
21959;SDS011;11144;43.030;25.108;2022-10-31T03:47:25;12.68;;;4.65;;
21959;SDS011;11144;43.030;25.108;2022-10-31T03:48:59;10.90;;;4.15;;
21959;SDS011;11144;43.030;25.108;2022-10-31T03:50:37;9.32;;;4.55;;
21959;SDS011;11144;43.030;25.108;2022-10-31T03:52:15;8.55;;;4.28;;
21959;SDS011;11144;43.030;25.108;2022-10-31T03:53:55;7.78;;;4.30;;
21959;SDS011;11144;43.030;25.108;2022-10-31T03:55:31;11.88;;;5.10;;
21959;SDS011;11144;43.030;25.108;2022-10-31T03:57:13;19.98;;;11.70;;
21959;SDS011;11144;43.030;25.108;2022-10-31T03:58:54;7.28;;;4.00;;
21959;SDS011;11144;43.030;25.108;2022-10-31T04:00:33;13.38;;;4.75;;
21959;SDS011;11144;43.030;25.108;2022-10-31T04:02:10;8.35;;;3.83;;
21959;SDS011;11144;43.030;25.108;2022-10-31T04:03:48;12.40;;;4.65;;
21959;SDS011;11144;43.030;25.108;2022-10-31T04:05:22;7.13;;;3.85;;
21959;SDS011;11144;43.030;25.108;2022-10-31T04:07:00;7.70;;;4.18;;
21959;SDS011;11144;43.030;25.108;2022-10-31T04:08:39;9.65;;;3.97;;
21959;SDS011;11144;43.030;25.108;2022-10-31T04:10:20;9.13;;;4.38;;
21959;SDS011;11144;43.030;25.108;2022-10-31T04:12:03;7.10;;;4.00;;
21959;SDS011;11144;43.030;25.108;2022-10-31T04:13:58;6.53;;;3.75;;
21959;SDS011;11144;43.030;25.108;2022-10-31T04:15:34;10.32;;;3.33;;
21959;SDS011;11144;43.030;25.108;2022-10-31T04:17:11;10.82;;;5.10;;
21959;SDS011;11144;43.030;25.108;2022-10-31T04:18:48;10.13;;;4.57;;
21959;SDS011;11144;43.030;25.108;2022-10-31T04:20:29;13.45;;;6.35;;
21959;SDS011;11144;43.030;25.108;2022-10-31T04:22:03;13.20;;;6.68;;
21959;SDS011;11144;43.030;25.108;2022-10-31T04:23:36;10.75;;;6.15;;
21959;SDS011;11144;43.030;25.108;2022-10-31T04:25:24;10.38;;;4.05;;
21959;SDS011;11144;43.030;25.108;2022-10-31T04:26:58;13.98;;;5.88;;
21959;SDS011;11144;43.030;25.108;2022-10-31T04:28:33;7.65;;;4.10;;
21959;SDS011;11144;43.030;25.108;2022-10-31T04:30:06;11.85;;;4.75;;
21959;SDS011;11144;43.030;25.108;2022-10-31T04:31:43;11.45;;;4.50;;
21959;SDS011;11144;43.030;25.108;2022-10-31T04:33:17;7.75;;;3.92;;
21959;SDS011;11144;43.030;25.108;2022-10-31T04:34:51;9.63;;;4.45;;
21959;SDS011;11144;43.030;25.108;2022-10-31T04:36:24;11.43;;;4.03;;
21959;SDS011;11144;43.030;25.108;2022-10-31T04:37:59;10.43;;;4.03;;
21959;SDS011;11144;43.030;25.108;2022-10-31T04:39:31;12.10;;;4.93;;
21959;SDS011;11144;43.030;25.108;2022-10-31T04:41:24;12.15;;;5.18;;
21959;SDS011;11144;43.030;25.108;2022-10-31T04:43:05;13.25;;;5.38;;
21959;SDS011;11144;43.030;25.108;2022-10-31T04:44:38;10.05;;;4.22;;
21959;SDS011;11144;43.030;25.108;2022-10-31T04:46:12;9.88;;;4.95;;
21959;SDS011;11144;43.030;25.108;2022-10-31T04:47:44;11.63;;;5.38;;
21959;SDS011;11144;43.030;25.108;2022-10-31T04:49:18;20.27;;;8.75;;
21959;SDS011;11144;43.030;25.108;2022-10-31T04:50:51;21.17;;;9.27;;
21959;SDS011;11144;43.030;25.108;2022-10-31T04:52:24;21.58;;;7.88;;
21959;SDS011;11144;43.030;25.108;2022-10-31T04:53:59;20.55;;;9.20;;
21959;SDS011;11144;43.030;25.108;2022-10-31T04:55:38;21.90;;;8.50;;
21959;SDS011;11144;43.030;25.108;2022-10-31T04:57:20;20.92;;;9.52;;
21959;SDS011;11144;43.030;25.108;2022-10-31T04:58:53;30.92;;;10.82;;
21959;SDS011;11144;43.030;25.108;2022-10-31T05:00:28;27.48;;;9.20;;
21959;SDS011;11144;43.030;25.108;2022-10-31T05:02:02;30.70;;;11.32;;
21959;SDS011;11144;43.030;25.108;2022-10-31T05:03:49;28.52;;;10.68;;
21959;SDS011;11144;43.030;25.108;2022-10-31T05:05:21;50.03;;;18.95;;
21959;SDS011;11144;43.030;25.108;2022-10-31T05:06:56;45.30;;;17.67;;
21959;SDS011;11144;43.030;25.108;2022-10-31T05:08:29;53.10;;;18.67;;
21959;SDS011;11144;43.030;25.108;2022-10-31T05:10:07;47.10;;;19.38;;
21959;SDS011;11144;43.030;25.108;2022-10-31T05:11:42;46.13;;;16.10;;
21959;SDS011;11144;43.030;25.108;2022-10-31T05:13:34;40.05;;;14.80;;
21959;SDS011;11144;43.030;25.108;2022-10-31T05:15:17;33.67;;;14.90;;
21959;SDS011;11144;43.030;25.108;2022-10-31T05:17:09;41.47;;;15.40;;
21959;SDS011;11144;43.030;25.108;2022-10-31T05:19:01;34.63;;;12.88;;
21959;SDS011;11144;43.030;25.108;2022-10-31T05:20:53;30.17;;;12.95;;
21959;SDS011;11144;43.030;25.108;2022-10-31T05:22:35;26.52;;;12.60;;
21959;SDS011;11144;43.030;25.108;2022-10-31T05:24:08;38.03;;;12.45;;
21959;SDS011;11144;43.030;25.108;2022-10-31T05:25:46;30.63;;;13.23;;
21959;SDS011;11144;43.030;25.108;2022-10-31T05:27:19;33.58;;;14.30;;
21959;SDS011;11144;43.030;25.108;2022-10-31T05:28:53;41.45;;;18.48;;
21959;SDS011;11144;43.030;25.108;2022-10-31T05:30:28;40.85;;;14.25;;
21959;SDS011;11144;43.030;25.108;2022-10-31T05:32:03;41.85;;;16.50;;
21959;SDS011;11144;43.030;25.108;2022-10-31T05:33:55;43.88;;;18.05;;
21959;SDS011;11144;43.030;25.108;2022-10-31T05:35:54;40.03;;;16.23;;
21959;SDS011;11144;43.030;25.108;2022-10-31T05:37:30;25.67;;;10.40;;
21959;SDS011;11144;43.030;25.108;2022-10-31T05:39:03;31.55;;;10.95;;
21959;SDS011;11144;43.030;25.108;2022-10-31T05:40:46;30.13;;;10.45;;
21959;SDS011;11144;43.030;25.108;2022-10-31T05:42:19;29.38;;;9.82;;
21959;SDS011;11144;43.030;25.108;2022-10-31T05:43:52;15.80;;;7.45;;
21959;SDS011;11144;43.030;25.108;2022-10-31T05:45:31;14.93;;;6.03;;
21959;SDS011;11144;43.030;25.108;2022-10-31T05:47:07;14.75;;;7.13;;
21959;SDS011;11144;43.030;25.108;2022-10-31T05:49:17;14.70;;;5.95;;
21959;SDS011;11144;43.030;25.108;2022-10-31T05:51:09;37.47;;;8.50;;
21959;SDS011;11144;43.030;25.108;2022-10-31T05:52:44;19.60;;;8.05;;
21959;SDS011;11144;43.030;25.108;2022-10-31T05:54:31;19.85;;;7.30;;
21959;SDS011;11144;43.030;25.108;2022-10-31T05:56:06;12.93;;;6.93;;
21959;SDS011;11144;43.030;25.108;2022-10-31T05:57:39;12.55;;;5.68;;
21959;SDS011;11144;43.030;25.108;2022-10-31T05:59:13;16.10;;;6.22;;
21959;SDS011;11144;43.030;25.108;2022-10-31T06:00:46;27.50;;;10.70;;
21959;SDS011;11144;43.030;25.108;2022-10-31T06:02:20;69.88;;;28.33;;
21959;SDS011;11144;43.030;25.108;2022-10-31T06:04:29;43.95;;;19.10;;
21959;SDS011;11144;43.030;25.108;2022-10-31T06:06:04;45.78;;;19.58;;
21959;SDS011;11144;43.030;25.108;2022-10-31T06:07:41;63.40;;;19.10;;
21959;SDS011;11144;43.030;25.108;2022-10-31T06:09:13;36.10;;;13.90;;
21959;SDS011;11144;43.030;25.108;2022-10-31T06:10:48;31.88;;;12.57;;
21959;SDS011;11144;43.030;25.108;2022-10-31T06:12:29;27.52;;;11.70;;
21959;SDS011;11144;43.030;25.108;2022-10-31T06:14:17;27.73;;;11.88;;
21959;SDS011;11144;43.030;25.108;2022-10-31T06:16:01;21.30;;;10.45;;
21959;SDS011;11144;43.030;25.108;2022-10-31T06:17:42;34.08;;;11.65;;
21959;SDS011;11144;43.030;25.108;2022-10-31T06:19:30;27.45;;;11.93;;
21959;SDS011;11144;43.030;25.108;2022-10-31T06:21:03;27.10;;;12.05;;
21959;SDS011;11144;43.030;25.108;2022-10-31T06:22:37;23.83;;;11.65;;
21959;SDS011;11144;43.030;25.108;2022-10-31T06:24:10;26.45;;;11.98;;
21959;SDS011;11144;43.030;25.108;2022-10-31T06:26:19;23.92;;;11.65;;
21959;SDS011;11144;43.030;25.108;2022-10-31T06:27:54;29.10;;;11.52;;
21959;SDS011;11144;43.030;25.108;2022-10-31T06:29:32;25.98;;;10.70;;
21959;SDS011;11144;43.030;25.108;2022-10-31T06:31:11;23.38;;;9.93;;
21959;SDS011;11144;43.030;25.108;2022-10-31T06:32:44;34.60;;;7.88;;
21959;SDS011;11144;43.030;25.108;2022-10-31T06:34:17;14.80;;;6.50;;
21959;SDS011;11144;43.030;25.108;2022-10-31T06:35:50;15.20;;;7.20;;
21959;SDS011;11144;43.030;25.108;2022-10-31T06:37:23;14.65;;;5.72;;
21959;SDS011;11144;43.030;25.108;2022-10-31T06:39:03;15.32;;;5.35;;
21959;SDS011;11144;43.030;25.108;2022-10-31T06:40:36;13.55;;;6.03;;
21959;SDS011;11144;43.030;25.108;2022-10-31T06:42:25;14.85;;;6.07;;
21959;SDS011;11144;43.030;25.108;2022-10-31T06:43:59;13.75;;;5.75;;
21959;SDS011;11144;43.030;25.108;2022-10-31T06:46:01;28.27;;;6.28;;
21959;SDS011;11144;43.030;25.108;2022-10-31T06:47:49;18.00;;;7.32;;
21959;SDS011;11144;43.030;25.108;2022-10-31T06:49:59;29.83;;;9.30;;
21959;SDS011;11144;43.030;25.108;2022-10-31T06:51:33;27.67;;;12.65;;
21959;SDS011;11144;43.030;25.108;2022-10-31T06:53:07;34.40;;;12.63;;
21959;SDS011;11144;43.030;25.108;2022-10-31T06:54:43;36.05;;;15.05;;
21959;SDS011;11144;43.030;25.108;2022-10-31T06:56:18;37.55;;;16.08;;
21959;SDS011;11144;43.030;25.108;2022-10-31T06:57:56;35.78;;;14.02;;
21959;SDS011;11144;43.030;25.108;2022-10-31T06:59:36;37.63;;;11.40;;
21959;SDS011;11144;43.030;25.108;2022-10-31T07:01:29;28.60;;;11.75;;
21959;SDS011;11144;43.030;25.108;2022-10-31T07:03:06;33.33;;;13.98;;
21959;SDS011;11144;43.030;25.108;2022-10-31T07:04:43;40.88;;;13.77;;
21959;SDS011;11144;43.030;25.108;2022-10-31T07:06:19;26.58;;;12.85;;
21959;SDS011;11144;43.030;25.108;2022-10-31T07:07:53;31.40;;;12.90;;
21959;SDS011;11144;43.030;25.108;2022-10-31T07:09:27;22.98;;;11.02;;
21959;SDS011;11144;43.030;25.108;2022-10-31T07:11:04;24.23;;;10.68;;
21959;SDS011;11144;43.030;25.108;2022-10-31T07:12:38;24.15;;;10.10;;
21959;SDS011;11144;43.030;25.108;2022-10-31T07:14:12;21.95;;;10.65;;
21959;SDS011;11144;43.030;25.108;2022-10-31T07:15:47;18.45;;;8.70;;
21959;SDS011;11144;43.030;25.108;2022-10-31T07:17:22;22.58;;;8.52;;
21959;SDS011;11144;43.030;25.108;2022-10-31T07:19:02;14.82;;;5.85;;
21959;SDS011;11144;43.030;25.108;2022-10-31T07:20:36;15.55;;;5.30;;
21959;SDS011;11144;43.030;25.108;2022-10-31T07:22:10;20.42;;;5.22;;
21959;SDS011;11144;43.030;25.108;2022-10-31T07:23:47;16.63;;;5.03;;
21959;SDS011;11144;43.030;25.108;2022-10-31T07:25:41;16.98;;;5.32;;
21959;SDS011;11144;43.030;25.108;2022-10-31T07:27:25;17.35;;;4.90;;
21959;SDS011;11144;43.030;25.108;2022-10-31T07:28:59;16.30;;;5.00;;
21959;SDS011;11144;43.030;25.108;2022-10-31T07:30:32;12.48;;;5.10;;
21959;SDS011;11144;43.030;25.108;2022-10-31T07:32:07;20.80;;;4.75;;
21959;SDS011;11144;43.030;25.108;2022-10-31T07:33:46;17.80;;;5.47;;
21959;SDS011;11144;43.030;25.108;2022-10-31T07:35:45;24.10;;;6.20;;
21959;SDS011;11144;43.030;25.108;2022-10-31T07:37:21;17.30;;;5.53;;
21959;SDS011;11144;43.030;25.108;2022-10-31T07:38:56;26.83;;;5.82;;
21959;SDS011;11144;43.030;25.108;2022-10-31T07:40:30;14.18;;;5.53;;
21959;SDS011;11144;43.030;25.108;2022-10-31T07:42:04;16.15;;;6.20;;
21959;SDS011;11144;43.030;25.108;2022-10-31T07:43:38;13.18;;;5.47;;
21959;SDS011;11144;43.030;25.108;2022-10-31T07:45:34;8.95;;;4.97;;
21959;SDS011;11144;43.030;25.108;2022-10-31T07:47:38;12.77;;;4.57;;
21959;SDS011;11144;43.030;25.108;2022-10-31T07:49:30;13.38;;;5.50;;
21959;SDS011;11144;43.030;25.108;2022-10-31T07:51:22;15.35;;;5.78;;
21959;SDS011;11144;43.030;25.108;2022-10-31T07:53:14;17.05;;;4.47;;
21959;SDS011;11144;43.030;25.108;2022-10-31T07:54:48;16.05;;;4.40;;
21959;SDS011;11144;43.030;25.108;2022-10-31T07:56:26;12.90;;;4.80;;
21959;SDS011;11144;43.030;25.108;2022-10-31T07:58:00;7.97;;;4.65;;
21959;SDS011;11144;43.030;25.108;2022-10-31T07:59:35;6.85;;;4.63;;
21959;SDS011;11144;43.030;25.108;2022-10-31T08:01:10;9.52;;;4.15;;
21959;SDS011;11144;43.030;25.108;2022-10-31T08:02:59;11.85;;;4.22;;
21959;SDS011;11144;43.030;25.108;2022-10-31T08:04:54;12.18;;;3.42;;
21959;SDS011;11144;43.030;25.108;2022-10-31T08:07:04;8.05;;;3.88;;
21959;SDS011;11144;43.030;25.108;2022-10-31T08:08:41;7.78;;;3.53;;
21959;SDS011;11144;43.030;25.108;2022-10-31T08:10:14;11.50;;;3.60;;
21959;SDS011;11144;43.030;25.108;2022-10-31T08:11:48;10.45;;;3.72;;
21959;SDS011;11144;43.030;25.108;2022-10-31T08:13:21;10.50;;;4.13;;
21959;SDS011;11144;43.030;25.108;2022-10-31T08:14:55;11.02;;;3.80;;
21959;SDS011;11144;43.030;25.108;2022-10-31T08:16:28;13.15;;;3.47;;
21959;SDS011;11144;43.030;25.108;2022-10-31T08:18:06;8.45;;;3.55;;
21959;SDS011;11144;43.030;25.108;2022-10-31T08:19:44;12.43;;;3.55;;
21959;SDS011;11144;43.030;25.108;2022-10-31T08:21:20;5.97;;;3.15;;
21959;SDS011;11144;43.030;25.108;2022-10-31T08:22:54;11.25;;;3.78;;
21959;SDS011;11144;43.030;25.108;2022-10-31T08:24:28;10.10;;;3.78;;
21959;SDS011;11144;43.030;25.108;2022-10-31T08:26:02;15.77;;;4.68;;
21959;SDS011;11144;43.030;25.108;2022-10-31T08:27:37;12.90;;;3.42;;
21959;SDS011;11144;43.030;25.108;2022-10-31T08:29:16;6.57;;;3.75;;
21959;SDS011;11144;43.030;25.108;2022-10-31T08:30:51;10.82;;;4.18;;
21959;SDS011;11144;43.030;25.108;2022-10-31T08:33:03;9.43;;;3.85;;
21959;SDS011;11144;43.030;25.108;2022-10-31T08:34:57;8.77;;;3.50;;
21959;SDS011;11144;43.030;25.108;2022-10-31T08:36:49;9.68;;;3.45;;
21959;SDS011;11144;43.030;25.108;2022-10-31T08:38:30;6.13;;;3.63;;
21959;SDS011;11144;43.030;25.108;2022-10-31T08:40:04;12.63;;;4.38;;
21959;SDS011;11144;43.030;25.108;2022-10-31T08:41:39;7.70;;;3.88;;
21959;SDS011;11144;43.030;25.108;2022-10-31T08:43:16;5.90;;;3.50;;
21959;SDS011;11144;43.030;25.108;2022-10-31T08:44:52;8.95;;;4.00;;
21959;SDS011;11144;43.030;25.108;2022-10-31T08:46:26;7.88;;;3.92;;
21959;SDS011;11144;43.030;25.108;2022-10-31T08:48:00;10.52;;;3.60;;
21959;SDS011;11144;43.030;25.108;2022-10-31T08:49:36;10.82;;;3.92;;
21959;SDS011;11144;43.030;25.108;2022-10-31T08:51:11;15.52;;;4.88;;
21959;SDS011;11144;43.030;25.108;2022-10-31T08:52:44;10.70;;;3.83;;
21959;SDS011;11144;43.030;25.108;2022-10-31T08:54:37;8.38;;;3.15;;
21959;SDS011;11144;43.030;25.108;2022-10-31T08:56:33;11.30;;;3.30;;
21959;SDS011;11144;43.030;25.108;2022-10-31T08:58:13;8.25;;;3.38;;
21959;SDS011;11144;43.030;25.108;2022-10-31T08:59:53;8.20;;;3.38;;
21959;SDS011;11144;43.030;25.108;2022-10-31T09:01:29;8.43;;;3.80;;
21959;SDS011;11144;43.030;25.108;2022-10-31T09:03:04;5.65;;;3.28;;
21959;SDS011;11144;43.030;25.108;2022-10-31T09:04:40;8.85;;;4.18;;
21959;SDS011;11144;43.030;25.108;2022-10-31T09:06:15;7.45;;;3.05;;
21959;SDS011;11144;43.030;25.108;2022-10-31T09:07:54;8.45;;;4.03;;
21959;SDS011;11144;43.030;25.108;2022-10-31T09:09:29;8.25;;;3.35;;
21959;SDS011;11144;43.030;25.108;2022-10-31T09:11:02;6.70;;;3.03;;
21959;SDS011;11144;43.030;25.108;2022-10-31T09:13:01;6.60;;;2.78;;
21959;SDS011;11144;43.030;25.108;2022-10-31T09:14:40;7.15;;;3.40;;
21959;SDS011;11144;43.030;25.108;2022-10-31T09:16:27;9.65;;;4.22;;
21959;SDS011;11144;43.030;25.108;2022-10-31T09:18:00;9.90;;;4.57;;
21959;SDS011;11144;43.030;25.108;2022-10-31T09:19:41;7.82;;;3.22;;
21959;SDS011;11144;43.030;25.108;2022-10-31T09:21:16;11.73;;;3.67;;
21959;SDS011;11144;43.030;25.108;2022-10-31T09:22:55;7.25;;;3.90;;
21959;SDS011;11144;43.030;25.108;2022-10-31T09:24:29;4.65;;;3.22;;
21959;SDS011;11144;43.030;25.108;2022-10-31T09:26:03;9.68;;;4.07;;
21959;SDS011;11144;43.030;25.108;2022-10-31T09:27:39;9.73;;;5.25;;
21959;SDS011;11144;43.030;25.108;2022-10-31T09:29:13;6.72;;;3.47;;
21959;SDS011;11144;43.030;25.108;2022-10-31T09:30:48;8.23;;;3.13;;
21959;SDS011;11144;43.030;25.108;2022-10-31T09:32:42;9.50;;;3.20;;
21959;SDS011;11144;43.030;25.108;2022-10-31T09:34:15;10.63;;;3.72;;
21959;SDS011;11144;43.030;25.108;2022-10-31T09:36:05;6.93;;;3.10;;
21959;SDS011;11144;43.030;25.108;2022-10-31T09:37:45;11.52;;;4.07;;
21959;SDS011;11144;43.030;25.108;2022-10-31T09:39:18;12.65;;;3.53;;
21959;SDS011;11144;43.030;25.108;2022-10-31T09:41:01;5.82;;;3.67;;
21959;SDS011;11144;43.030;25.108;2022-10-31T09:42:52;11.20;;;3.92;;